createdAt,value
2018-12-31T00:01:43.286Z,92.77
2018-12-31T00:04:12.183Z,97.70
2018-12-31T00:06:40.833Z,114.70
2018-12-31T00:09:09.560Z,89.23
2018-12-31T00:11:39.279Z,105.70
2018-12-31T00:14:07.850Z,112.07
2018-12-31T00:16:36.518Z,101.83
2018-12-31T00:19:05.321Z,121.33
2018-12-31T00:21:33.961Z,88.17
2018-12-31T00:24:02.996Z,91.20
2018-12-31T00:26:31.641Z,108.70
2018-12-31T00:29:00.653Z,98.47
2018-12-31T00:31:29.460Z,152.63
2018-12-31T00:33:58.142Z,151.93
2018-12-31T00:36:26.901Z,108.43
2018-12-31T00:38:55.880Z,107.67
2018-12-31T00:41:24.668Z,144.30
2018-12-31T00:43:53.249Z,119.80
2018-12-31T00:46:21.855Z,111.73
2018-12-31T00:48:50.437Z,95.87
2018-12-31T00:51:19.102Z,85.70
2018-12-31T00:53:48.119Z,108.97
2018-12-31T00:56:16.762Z,93.23
2018-12-31T00:58:45.416Z,78.63
2018-12-31T01:01:14.371Z,76.20
2018-12-31T01:03:43.026Z,81.20
2018-12-31T01:06:11.710Z,100.40
2018-12-31T01:08:40.395Z,89.50
2018-12-31T01:11:08.998Z,89.63
2018-12-31T01:13:37.613Z,68.53
2018-12-31T01:16:06.245Z,85.17
2018-12-31T01:18:34.838Z,68.43
2018-12-31T01:21:03.622Z,81.87
2018-12-31T01:23:32.248Z,60.17
2018-12-31T01:26:01.025Z,51.40
2018-12-31T01:28:29.817Z,60.07
2018-12-31T01:30:58.397Z,58.10
2018-12-31T01:33:27.002Z,58.07
2018-12-31T01:35:55.865Z,49.50
2018-12-31T01:38:24.549Z,44.23
2018-12-31T01:40:53.541Z,57.00
2018-12-31T01:43:22.284Z,50.70
2018-12-31T01:45:50.900Z,56.43
2018-12-31T01:48:19.546Z,53.40
2018-12-31T01:50:48.232Z,46.30
2018-12-31T01:53:17.253Z,56.30
2018-12-31T01:55:45.953Z,43.87
2018-12-31T01:58:14.583Z,56.63
2018-12-31T02:00:43.322Z,48.60
2018-12-31T02:03:12.008Z,45.13
2018-12-31T02:05:40.646Z,44.53
2018-12-31T02:08:09.249Z,42.23
2018-12-31T02:10:37.864Z,42.20
2018-12-31T02:13:06.700Z,38.10
2018-12-31T02:15:35.616Z,42.13
2018-12-31T02:18:04.615Z,42.60
2018-12-31T02:20:33.236Z,32.83
2018-12-31T02:23:01.992Z,39.77
2018-12-31T02:25:30.634Z,31.73
2018-12-31T02:27:59.314Z,38.23
2018-12-31T02:30:28.008Z,38.13
2018-12-31T02:32:57.447Z,39.87
2018-12-31T02:35:26.020Z,36.30
2018-12-31T02:37:54.673Z,39.00
2018-12-31T02:40:23.397Z,44.30
2018-12-31T02:42:52.080Z,34.03
2018-12-31T02:45:20.727Z,41.50
2018-12-31T02:47:49.449Z,31.00
2018-12-31T02:50:18.021Z,38.63
2018-12-31T02:52:46.776Z,32.70
2018-12-31T02:55:15.358Z,37.97
2018-12-31T02:57:43.970Z,30.43
2018-12-31T03:00:12.666Z,37.07
2018-12-31T03:02:41.253Z,37.93
2018-12-31T03:05:10.205Z,45.40
2018-12-31T03:07:38.823Z,36.57
2018-12-31T03:10:07.929Z,37.00
2018-12-31T03:12:36.661Z,37.50
2018-12-31T03:15:06.099Z,35.37
2018-12-31T03:17:34.744Z,45.10
2018-12-31T03:20:03.437Z,36.40
2018-12-31T03:22:32.153Z,51.00
2018-12-31T03:25:01.132Z,40.43
2018-12-31T03:27:29.935Z,49.20
2018-12-31T03:29:58.550Z,41.93
2018-12-31T03:32:27.261Z,43.57
2018-12-31T03:34:55.866Z,59.10
2018-12-31T03:37:24.476Z,59.57
2018-12-31T03:39:53.667Z,60.57
2018-12-31T03:42:22.411Z,59.00
2018-12-31T03:44:51.055Z,70.50
2018-12-31T03:47:20.001Z,62.40
2018-12-31T03:49:48.710Z,64.63
2018-12-31T03:52:17.451Z,73.20
2018-12-31T03:54:46.060Z,61.83
2018-12-31T03:57:14.806Z,59.83
2018-12-31T03:59:43.503Z,71.43
2018-12-31T04:02:12.113Z,69.87
2018-12-31T04:04:40.870Z,65.63
2018-12-31T04:07:09.477Z,64.23
2018-12-31T04:09:38.134Z,81.83
2018-12-31T04:12:06.823Z,78.57
2018-12-31T04:14:35.424Z,76.27
2018-12-31T04:17:04.140Z,96.63
2018-12-31T04:19:33.229Z,81.23
2018-12-31T04:22:01.914Z,102.37
2018-12-31T04:24:30.558Z,130.03
2018-12-31T04:26:59.237Z,85.80
2018-12-31T04:29:27.946Z,111.00
2018-12-31T04:31:56.553Z,98.13
2018-12-31T04:34:25.230Z,79.00
2018-12-31T04:36:53.981Z,105.67
2018-12-31T04:39:22.587Z,112.57
2018-12-31T04:41:51.580Z,73.63
2018-12-31T04:44:20.159Z,99.70
2018-12-31T04:46:48.813Z,86.47
2018-12-31T04:49:17.396Z,95.93
2018-12-31T04:51:46.005Z,92.87
2018-12-31T04:54:14.603Z,98.23
2018-12-31T04:56:43.240Z,119.40
2018-12-31T04:59:12.155Z,103.30
2018-12-31T05:01:40.815Z,118.90
2018-12-31T05:04:09.554Z,125.47
2018-12-31T05:06:38.178Z,91.83
2018-12-31T05:09:07.013Z,105.47
2018-12-31T05:11:35.757Z,105.30
2018-12-31T05:14:04.491Z,152.27
2018-12-31T05:16:33.124Z,132.40
2018-12-31T05:19:02.044Z,90.63
2018-12-31T05:21:30.651Z,110.23
2018-12-31T05:23:59.229Z,89.50
2018-12-31T05:26:28.195Z,102.37
2018-12-31T05:28:56.797Z,115.50
2018-12-31T05:31:25.381Z,110.10
2018-12-31T05:33:53.971Z,103.13
2018-12-31T05:36:22.572Z,100.63
2018-12-31T05:38:51.617Z,104.83
2018-12-31T05:41:20.324Z,100.07
2018-12-31T05:43:48.857Z,93.23
2018-12-31T05:46:17.542Z,103.50
2018-12-31T05:48:46.244Z,100.10
2018-12-31T05:51:14.837Z,102.03
2018-12-31T05:53:43.707Z,86.90
2018-12-31T05:56:12.426Z,81.90
2018-12-31T05:58:41.001Z,85.77
2018-12-31T06:01:09.607Z,84.07
2018-12-31T06:03:38.276Z,104.50
2018-12-31T06:06:06.924Z,90.27
2018-12-31T06:08:35.935Z,104.87
2018-12-31T06:11:04.613Z,108.73
2018-12-31T06:13:33.202Z,109.70
2018-12-31T06:16:01.803Z,103.23
2018-12-31T06:18:30.774Z,95.83
2018-12-31T06:20:59.532Z,92.63
2018-12-31T06:23:28.263Z,87.87
2018-12-31T06:25:56.834Z,104.00
2018-12-31T06:28:25.430Z,113.93
2018-12-31T06:31:01.572Z,93.97
2018-12-31T06:33:30.454Z,86.07
2018-12-31T06:35:59.039Z,92.00
2018-12-31T06:38:27.724Z,94.23
2018-12-31T06:40:56.381Z,78.63
2018-12-31T06:43:24.995Z,84.90
2018-12-31T06:45:53.869Z,84.77
2018-12-31T06:48:22.482Z,91.63
2018-12-31T06:50:51.221Z,80.90
2018-12-31T06:53:20.006Z,87.43
2018-12-31T06:55:48.582Z,88.77
2018-12-31T06:58:17.271Z,95.33
2018-12-31T07:00:46.186Z,98.57
2018-12-31T07:03:14.794Z,82.90
2018-12-31T07:05:43.428Z,90.20
2018-12-31T07:08:12.037Z,79.00
2018-12-31T07:10:40.703Z,90.90
2018-12-31T07:13:09.328Z,89.93
2018-12-31T07:15:38.004Z,96.60
2018-12-31T07:18:06.643Z,86.87
2018-12-31T07:20:37.075Z,94.17
2018-12-31T07:23:05.706Z,95.23
2018-12-31T07:25:34.689Z,93.80
2018-12-31T07:28:03.657Z,97.43
2018-12-31T07:30:32.366Z,93.70
2018-12-31T07:33:02.879Z,97.67
2018-12-31T07:35:31.401Z,82.03
2018-12-31T07:38:00.016Z,105.50
2018-12-31T07:40:28.619Z,94.53
2018-12-31T07:42:57.209Z,86.93
2018-12-31T07:45:26.087Z,92.27
2018-12-31T07:47:55.073Z,88.00
2018-12-31T07:50:23.842Z,114.23
2018-12-31T07:52:52.447Z,98.87
2018-12-31T07:55:21.512Z,99.20
2018-12-31T07:57:50.535Z,101.50
2018-12-31T08:00:19.543Z,102.07
2018-12-31T08:02:48.410Z,89.07
2018-12-31T08:05:17.132Z,99.97
2018-12-31T08:07:46.109Z,101.47
2018-12-31T08:10:14.973Z,89.27
2018-12-31T08:12:44.091Z,95.83
2018-12-31T08:15:12.628Z,95.50
2018-12-31T08:17:42.546Z,99.43
2018-12-31T08:20:11.226Z,92.47
2018-12-31T08:22:40.089Z,102.37
2018-12-31T08:25:09.107Z,89.83
2018-12-31T08:27:37.690Z,102.17
2018-12-31T08:30:07.427Z,82.87
2018-12-31T08:32:36.183Z,81.00
2018-12-31T08:35:05.071Z,83.73
2018-12-31T08:37:34.041Z,78.63
2018-12-31T08:40:02.715Z,89.60
2018-12-31T08:42:31.293Z,70.60
2018-12-31T08:45:00.197Z,80.93
2018-12-31T08:47:29.134Z,73.50
2018-12-31T08:49:58.125Z,80.03
2018-12-31T08:52:28.185Z,95.83
2018-12-31T08:54:57.619Z,82.63
2018-12-31T08:57:26.627Z,70.93
2018-12-31T08:59:55.647Z,72.77
2018-12-31T09:02:24.742Z,68.53
2018-12-31T09:04:53.313Z,82.37
2018-12-31T09:07:21.962Z,77.10
2018-12-31T09:09:50.874Z,85.73
2018-12-31T09:12:19.470Z,83.43
2018-12-31T09:14:48.163Z,85.83
2018-12-31T09:17:16.775Z,78.47
2018-12-31T09:19:45.482Z,77.80
2018-12-31T09:22:14.139Z,66.57
2018-12-31T09:24:44.736Z,70.23
2018-12-31T09:27:13.530Z,65.53
2018-12-31T09:29:43.919Z,75.37
2018-12-31T09:32:12.469Z,88.27
2018-12-31T09:34:41.081Z,79.83
2018-12-31T09:37:09.667Z,71.17
2018-12-31T09:39:39.493Z,77.03
2018-12-31T09:42:08.198Z,79.40
2018-12-31T09:44:37.858Z,80.50
2018-12-31T09:47:06.480Z,75.03
2018-12-31T09:49:35.159Z,66.60
2018-12-31T09:52:03.736Z,81.03
2018-12-31T09:54:32.743Z,75.47
2018-12-31T09:57:01.796Z,74.37
2018-12-31T09:59:30.472Z,71.77
2018-12-31T10:01:59.114Z,68.37
2018-12-31T10:04:27.847Z,67.67
2018-12-31T10:06:56.429Z,74.90
2018-12-31T10:09:25.411Z,69.83
2018-12-31T10:11:54.085Z,65.80
2018-12-31T10:14:23.140Z,58.37
2018-12-31T10:16:51.823Z,64.77
2018-12-31T10:19:20.395Z,89.67
2018-12-31T10:21:49.597Z,66.07
2018-12-31T10:24:18.702Z,71.80
2018-12-31T10:26:47.329Z,61.03
2018-12-31T10:29:16.018Z,57.67
2018-12-31T10:31:45.668Z,63.53
2018-12-31T10:34:14.633Z,65.03
2018-12-31T10:36:43.403Z,71.20
2018-12-31T10:39:12.084Z,64.23
2018-12-31T10:41:41.209Z,66.70
2018-12-31T10:44:09.867Z,67.50
2018-12-31T10:46:38.453Z,69.20
2018-12-31T10:49:07.485Z,64.00
2018-12-31T10:51:36.326Z,76.23
2018-12-31T10:54:04.985Z,73.57
2018-12-31T10:56:33.913Z,61.47
2018-12-31T10:59:02.688Z,64.90
2018-12-31T11:01:31.369Z,67.50
2018-12-31T11:04:00.354Z,55.10
2018-12-31T11:06:28.969Z,65.53
2018-12-31T11:08:57.673Z,59.13
2018-12-31T11:11:26.289Z,67.20
2018-12-31T11:13:55.468Z,64.07
2018-12-31T11:16:26.298Z,61.63
2018-12-31T11:18:55.278Z,57.70
2018-12-31T11:21:23.841Z,63.53
2018-12-31T11:23:52.734Z,53.23
2018-12-31T11:26:21.521Z,68.67
2018-12-31T11:28:50.481Z,63.27
2018-12-31T11:31:19.166Z,54.73
2018-12-31T11:33:47.803Z,70.47
2018-12-31T11:36:16.469Z,67.63
2018-12-31T11:38:45.124Z,66.67
2018-12-31T11:41:13.828Z,57.93
2018-12-31T11:43:42.721Z,61.97
2018-12-31T11:46:11.335Z,56.17
2018-12-31T11:48:39.931Z,70.40
2018-12-31T11:51:08.871Z,66.97
2018-12-31T11:53:38.048Z,57.80
2018-12-31T11:56:07.264Z,64.97
2018-12-31T11:58:36.175Z,49.77
2018-12-31T12:01:04.858Z,56.00
2018-12-31T12:03:33.413Z,63.10
2018-12-31T12:06:02.394Z,53.53
2018-12-31T12:08:31.349Z,66.23
2018-12-31T12:11:00.297Z,55.53
2018-12-31T12:13:29.329Z,51.00
2018-12-31T12:15:57.973Z,48.27
2018-12-31T12:18:26.742Z,56.20
2018-12-31T12:20:57.788Z,50.43
2018-12-31T12:23:26.786Z,54.00
2018-12-31T12:25:55.570Z,56.60
2018-12-31T12:28:24.180Z,59.20
2018-12-31T12:30:52.756Z,58.23
2018-12-31T12:33:21.439Z,56.00
2018-12-31T12:35:50.032Z,55.00
2018-12-31T12:38:19.901Z,61.07
2018-12-31T12:40:48.680Z,51.80
2018-12-31T12:43:17.687Z,51.20
2018-12-31T12:45:46.693Z,45.37
2018-12-31T12:48:15.701Z,57.77
2018-12-31T12:50:45.154Z,52.17
2018-12-31T12:53:15.164Z,57.47
2018-12-31T12:55:43.852Z,56.17
2018-12-31T12:58:12.550Z,46.50
2018-12-31T13:00:41.223Z,48.77
2018-12-31T13:03:10.040Z,47.43
2018-12-31T13:05:38.740Z,46.10
2018-12-31T13:08:07.424Z,46.27
2018-12-31T13:10:35.965Z,48.67
2018-12-31T13:13:04.981Z,44.77
2018-12-31T13:15:33.868Z,43.53
2018-12-31T13:18:02.777Z,52.63
2018-12-31T13:20:31.414Z,46.30
2018-12-31T13:23:00.198Z,44.70
2018-12-31T13:25:29.117Z,51.27
2018-12-31T13:27:57.834Z,44.03
2018-12-31T13:30:26.459Z,42.97
2018-12-31T13:32:55.554Z,48.43
2018-12-31T13:35:24.339Z,49.67
2018-12-31T13:37:53.068Z,48.87
2018-12-31T13:40:22.118Z,50.63
2018-12-31T13:42:50.739Z,41.80
2018-12-31T13:45:19.714Z,54.57
2018-12-31T13:47:48.374Z,41.97
2018-12-31T13:50:17.163Z,55.10
2018-12-31T13:52:46.154Z,51.23
2018-12-31T13:55:14.840Z,51.80
2018-12-31T13:57:43.461Z,52.60
2018-12-31T14:00:12.108Z,47.60
2018-12-31T14:02:40.851Z,42.70
2018-12-31T14:05:09.884Z,44.00
2018-12-31T14:07:38.501Z,54.60
2018-12-31T14:10:07.947Z,47.67
2018-12-31T14:12:36.721Z,50.60
2018-12-31T14:15:06.490Z,47.37
2018-12-31T14:17:35.294Z,44.57
2018-12-31T14:20:04.681Z,51.50
2018-12-31T14:22:33.668Z,46.43
2018-12-31T14:25:02.694Z,47.97
2018-12-31T14:27:31.772Z,55.13
2018-12-31T14:30:00.952Z,45.93
2018-12-31T14:32:29.621Z,46.77
2018-12-31T14:34:58.290Z,54.37
2018-12-31T14:37:26.990Z,52.03
2018-12-31T14:39:55.761Z,44.97
2018-12-31T14:42:24.608Z,45.97
2018-12-31T14:44:53.340Z,40.43
2018-12-31T14:47:21.987Z,44.40
2018-12-31T14:49:50.709Z,53.27
2018-12-31T14:52:19.912Z,57.63
2018-12-31T14:54:49.125Z,55.37
2018-12-31T14:57:17.791Z,51.33
2018-12-31T14:59:46.393Z,61.57
2018-12-31T15:02:15.383Z,59.30
2018-12-31T15:04:44.084Z,53.20
2018-12-31T15:07:13.142Z,45.43
2018-12-31T15:09:41.787Z,50.80
2018-12-31T15:12:10.387Z,55.73
2018-12-31T15:14:38.997Z,52.10
2018-12-31T15:17:08.818Z,45.97
2018-12-31T15:19:37.829Z,56.07
2018-12-31T15:22:06.570Z,45.57
2018-12-31T15:24:35.305Z,47.83
2018-12-31T15:27:05.164Z,52.33
2018-12-31T15:29:33.758Z,46.90
2018-12-31T15:32:03.179Z,59.83
2018-12-31T15:34:31.840Z,59.40
2018-12-31T15:37:00.858Z,56.50
2018-12-31T15:39:29.615Z,57.27
2018-12-31T15:41:58.501Z,64.13
2018-12-31T15:44:27.659Z,51.37
2018-12-31T15:46:56.688Z,53.13
2018-12-31T15:49:25.785Z,52.20
2018-12-31T15:51:54.515Z,56.67
2018-12-31T15:54:23.109Z,49.90
2018-12-31T15:56:52.366Z,59.43
2018-12-31T15:59:21.587Z,63.20
2018-12-31T16:01:50.354Z,56.27
2018-12-31T16:04:19.322Z,57.33
2018-12-31T16:06:48.112Z,50.70
2018-12-31T16:09:16.702Z,59.07
2018-12-31T16:11:45.893Z,61.60
2018-12-31T16:14:14.508Z,59.37
2018-12-31T16:16:43.113Z,49.97
2018-12-31T16:19:11.702Z,58.83
2018-12-31T16:21:40.313Z,59.40
2018-12-31T16:24:08.909Z,51.47
2018-12-31T16:26:37.537Z,58.70
2018-12-31T16:29:07.143Z,54.03
2018-12-31T16:31:35.978Z,60.57
2018-12-31T16:34:04.705Z,51.10
2018-12-31T16:36:33.307Z,63.47
2018-12-31T16:39:01.914Z,60.70
2018-12-31T16:41:30.716Z,55.30
2018-12-31T16:43:59.448Z,62.43
2018-12-31T16:46:28.040Z,58.33
2018-12-31T16:48:56.768Z,45.37
2018-12-31T16:51:25.445Z,62.90
2018-12-31T16:53:54.139Z,63.30
2018-12-31T16:56:22.832Z,55.67
2018-12-31T16:58:51.507Z,55.00
2018-12-31T17:01:20.542Z,59.87
2018-12-31T17:03:49.124Z,57.10
2018-12-31T17:06:17.806Z,51.77
2018-12-31T17:08:46.594Z,56.33
2018-12-31T17:11:15.237Z,59.07
2018-12-31T17:13:43.921Z,59.30
2018-12-31T17:16:12.908Z,61.70
2018-12-31T17:18:41.513Z,69.27
2018-12-31T17:21:10.511Z,60.43
2018-12-31T17:23:39.163Z,66.30
2018-12-31T17:26:07.753Z,58.70
2018-12-31T17:28:36.391Z,73.50
2018-12-31T17:31:04.976Z,61.10
2018-12-31T17:33:33.591Z,66.10
2018-12-31T17:36:02.240Z,63.53
2018-12-31T17:38:31.192Z,57.63
2018-12-31T17:40:59.785Z,67.57
2018-12-31T17:43:28.484Z,66.40
2018-12-31T17:45:57.018Z,61.90
2018-12-31T17:48:25.711Z,63.83
2018-12-31T17:50:54.292Z,73.10
2018-12-31T17:53:23.509Z,66.63
2018-12-31T17:55:52.266Z,72.77
2018-12-31T17:58:20.868Z,73.60
2018-12-31T18:00:49.522Z,67.53
2018-12-31T18:03:18.219Z,71.57
2018-12-31T18:05:47.001Z,74.23
2018-12-31T18:08:15.978Z,77.67
2018-12-31T18:10:44.563Z,68.03
2018-12-31T18:13:13.494Z,74.53
2018-12-31T18:15:42.388Z,70.87
2018-12-31T18:18:11.249Z,68.60
2018-12-31T18:20:39.879Z,63.70
2018-12-31T18:23:08.479Z,77.90
2018-12-31T18:25:37.062Z,68.37
2018-12-31T18:28:05.670Z,73.43
2018-12-31T18:30:34.359Z,67.77
2018-12-31T18:33:02.961Z,63.00
2018-12-31T18:35:31.634Z,68.70
2018-12-31T18:38:00.289Z,74.50
2018-12-31T18:40:28.874Z,66.67
2018-12-31T18:42:57.481Z,73.47
2018-12-31T18:45:26.161Z,63.13
2018-12-31T18:47:54.806Z,75.33
2018-12-31T18:50:23.427Z,68.13
2018-12-31T18:52:52.154Z,67.90
2018-12-31T18:55:20.766Z,66.87
2018-12-31T18:57:49.661Z,65.33
2018-12-31T19:00:18.596Z,64.73
2018-12-31T19:02:47.261Z,72.43
2018-12-31T19:05:16.276Z,70.20
2018-12-31T19:07:44.883Z,63.27
2018-12-31T19:10:13.922Z,79.27
2018-12-31T19:12:42.546Z,73.10
2018-12-31T19:15:11.193Z,67.73
2018-12-31T19:17:39.979Z,61.43
2018-12-31T19:20:08.993Z,61.00
2018-12-31T19:22:37.647Z,64.73
2018-12-31T19:25:06.952Z,60.53
2018-12-31T19:27:35.537Z,63.77
2018-12-31T19:30:04.679Z,57.90
2018-12-31T19:32:33.360Z,67.40
2018-12-31T19:35:02.102Z,67.43
2018-12-31T19:37:30.687Z,57.37
2018-12-31T19:39:59.468Z,63.17
2018-12-31T19:42:28.094Z,55.93
2018-12-31T19:44:56.734Z,65.87
2018-12-31T19:47:25.463Z,61.57
2018-12-31T19:49:54.743Z,57.50
2018-12-31T19:52:23.324Z,50.10
2018-12-31T19:54:52.389Z,59.80
2018-12-31T19:57:21.310Z,47.13
2018-12-31T19:59:50.010Z,49.23
2018-12-31T20:02:19.003Z,54.43
2018-12-31T20:04:47.635Z,47.57
2018-12-31T20:07:16.576Z,46.47
2018-12-31T20:09:45.309Z,47.90
2018-12-31T20:12:14.239Z,49.47
2018-12-31T20:14:44.667Z,43.20
2018-12-31T20:17:13.288Z,44.50
2018-12-31T20:19:42.357Z,58.53
2018-12-31T20:22:10.991Z,53.93
2018-12-31T20:24:39.608Z,52.00
2018-12-31T20:27:08.222Z,53.30
2018-12-31T20:29:37.451Z,52.43
2018-12-31T20:32:06.442Z,57.00
2018-12-31T20:34:35.131Z,60.27
2018-12-31T20:37:03.815Z,56.90
2018-12-31T20:39:32.404Z,51.60
2018-12-31T20:42:01.416Z,49.90
2018-12-31T20:44:30.406Z,56.93
2018-12-31T20:46:59.269Z,62.20
2018-12-31T20:49:28.360Z,56.97
2018-12-31T20:51:57.133Z,65.03
2018-12-31T20:54:25.711Z,62.93
2018-12-31T20:56:55.027Z,59.53
2018-12-31T20:59:25.867Z,62.30
2018-12-31T21:01:55.270Z,62.63
2018-12-31T21:04:25.888Z,50.97
2018-12-31T21:06:54.214Z,58.17
2018-12-31T21:09:24.150Z,65.03
2018-12-31T21:11:53.065Z,57.33
2018-12-31T21:14:21.720Z,53.33
2018-12-31T21:16:50.778Z,56.90
2018-12-31T21:19:19.352Z,50.97
2018-12-31T21:21:48.359Z,56.07
2018-12-31T21:24:17.316Z,54.93
2018-12-31T21:26:45.917Z,54.70
2018-12-31T21:29:14.887Z,56.67
2018-12-31T21:31:43.680Z,54.10
2018-12-31T21:34:12.289Z,61.40
2018-12-31T21:36:40.899Z,54.70
2018-12-31T21:39:09.545Z,60.90
2018-12-31T21:41:38.314Z,58.20
2018-12-31T21:44:06.995Z,55.30
2018-12-31T21:46:35.602Z,62.30
2018-12-31T21:49:04.719Z,64.00
2018-12-31T21:51:33.311Z,63.40
2018-12-31T21:54:01.892Z,67.77
2018-12-31T21:56:30.519Z,69.40
2018-12-31T21:58:59.132Z,74.87
2018-12-31T22:01:27.818Z,66.30
2018-12-31T22:03:56.466Z,69.90
2018-12-31T22:06:25.356Z,70.73
2018-12-31T22:08:53.950Z,80.57
2018-12-31T22:11:22.558Z,93.80
2018-12-31T22:13:51.145Z,81.83
2018-12-31T22:16:19.790Z,70.17
2018-12-31T22:18:48.395Z,75.63
2018-12-31T22:21:16.981Z,74.13
2018-12-31T22:23:45.638Z,59.57
2018-12-31T22:26:14.366Z,64.03
2018-12-31T22:28:43.321Z,68.50
2018-12-31T22:31:11.999Z,64.37
2018-12-31T22:33:40.700Z,70.93
2018-12-31T22:36:09.273Z,66.97
2018-12-31T22:38:37.951Z,84.10
2018-12-31T22:41:06.882Z,75.63
2018-12-31T22:43:35.622Z,86.60
2018-12-31T22:46:04.563Z,84.47
2018-12-31T22:48:33.300Z,87.83
2018-12-31T22:51:01.878Z,74.80
2018-12-31T22:53:30.564Z,71.83
2018-12-31T22:55:59.213Z,65.97
2018-12-31T22:58:27.933Z,61.60
2018-12-31T23:00:57.599Z,77.53
2018-12-31T23:03:26.212Z,165.47
2018-12-31T23:05:55.137Z,191.07
2018-12-31T23:08:23.799Z,247.53
2018-12-31T23:10:52.817Z,354.67
2018-12-31T23:13:21.515Z,243.63
2018-12-31T23:15:50.405Z,166.37
2018-12-31T23:18:19.038Z,126.90
2018-12-31T23:20:47.776Z,225.37
2018-12-31T23:23:16.339Z,124.00
2018-12-31T23:25:44.944Z,106.17
2018-12-31T23:28:13.616Z,90.57
2018-12-31T23:30:42.588Z,80.90
2018-12-31T23:33:11.604Z,95.40
2018-12-31T23:35:40.283Z,84.13
2018-12-31T23:38:08.882Z,89.57
2018-12-31T23:40:39.777Z,98.73
2018-12-31T23:43:08.485Z,110.00
2018-12-31T23:45:37.385Z,108.27
2018-12-31T23:48:06.025Z,118.80
2018-12-31T23:50:34.647Z,111.27
2018-12-31T23:53:03.385Z,122.20
2018-12-31T23:55:32.074Z,138.00
2018-12-31T23:58:01.419Z,152.37
